sensor_id;sensor_type;location;lat;lon;timestamp;P1;durP1;ratioP1;P2;durP2;ratioP2
10845;SDS011;5476;51.540;7.186;2022-08-01T00:01:25;26.83;;;23.70;;
10845;SDS011;5476;51.540;7.186;2022-08-01T00:03:52;28.63;;;23.33;;
10845;SDS011;5476;51.540;7.186;2022-08-01T00:06:19;27.02;;;23.33;;
10845;SDS011;5476;51.540;7.186;2022-08-01T00:08:46;30.70;;;24.20;;
10845;SDS011;5476;51.540;7.186;2022-08-01T00:11:13;30.95;;;24.73;;
10845;SDS011;5476;51.540;7.186;2022-08-01T00:13:41;31.08;;;24.80;;
10845;SDS011;5476;51.540;7.186;2022-08-01T00:16:08;29.70;;;24.42;;
10845;SDS011;5476;51.540;7.186;2022-08-01T00:18:35;28.67;;;23.83;;
10845;SDS011;5476;51.540;7.186;2022-08-01T00:21:02;30.88;;;24.88;;
10845;SDS011;5476;51.540;7.186;2022-08-01T00:23:29;28.90;;;25.85;;
10845;SDS011;5476;51.540;7.186;2022-08-01T00:25:56;28.45;;;24.73;;
10845;SDS011;5476;51.540;7.186;2022-08-01T00:28:23;28.10;;;24.08;;
10845;SDS011;5476;51.540;7.186;2022-08-01T00:30:52;30.75;;;24.15;;
10845;SDS011;5476;51.540;7.186;2022-08-01T00:33:18;31.63;;;24.48;;
10845;SDS011;5476;51.540;7.186;2022-08-01T00:35:45;30.90;;;25.08;;
10845;SDS011;5476;51.540;7.186;2022-08-01T00:38:12;30.13;;;25.55;;
10845;SDS011;5476;51.540;7.186;2022-08-01T00:40:39;28.50;;;24.23;;
10845;SDS011;5476;51.540;7.186;2022-08-01T00:43:06;28.05;;;23.70;;
10845;SDS011;5476;51.540;7.186;2022-08-01T00:45:33;26.85;;;23.52;;
10845;SDS011;5476;51.540;7.186;2022-08-01T00:48:01;25.52;;;22.75;;
10845;SDS011;5476;51.540;7.186;2022-08-01T00:50:29;24.98;;;21.98;;
10845;SDS011;5476;51.540;7.186;2022-08-01T00:52:55;26.80;;;22.77;;
10845;SDS011;5476;51.540;7.186;2022-08-01T00:55:24;26.52;;;23.25;;
10845;SDS011;5476;51.540;7.186;2022-08-01T00:57:51;27.52;;;22.20;;
10845;SDS011;5476;51.540;7.186;2022-08-01T01:00:18;25.77;;;22.27;;
10845;SDS011;5476;51.540;7.186;2022-08-01T01:02:46;28.63;;;23.40;;
10845;SDS011;5476;51.540;7.186;2022-08-01T01:05:14;27.40;;;23.85;;
10845;SDS011;5476;51.540;7.186;2022-08-01T01:07:43;27.83;;;23.90;;
10845;SDS011;5476;51.540;7.186;2022-08-01T01:10:15;28.70;;;23.80;;
10845;SDS011;5476;51.540;7.186;2022-08-01T01:12:47;29.83;;;24.67;;
10845;SDS011;5476;51.540;7.186;2022-08-01T01:15:18;33.08;;;24.95;;
10845;SDS011;5476;51.540;7.186;2022-08-01T01:17:51;30.67;;;24.77;;
10845;SDS011;5476;51.540;7.186;2022-08-01T01:20:24;30.13;;;24.65;;
10845;SDS011;5476;51.540;7.186;2022-08-01T01:22:59;31.80;;;24.38;;
10845;SDS011;5476;51.540;7.186;2022-08-01T01:25:46;28.92;;;23.92;;
10845;SDS011;5476;51.540;7.186;2022-08-01T01:29:00;28.02;;;22.65;;
10845;SDS011;5476;51.540;7.186;2022-08-01T01:31:32;28.33;;;22.25;;
10845;SDS011;5476;51.540;7.186;2022-08-01T01:34:13;27.27;;;22.95;;
10845;SDS011;5476;51.540;7.186;2022-08-01T01:36:43;27.08;;;22.42;;
10845;SDS011;5476;51.540;7.186;2022-08-01T01:39:12;25.77;;;21.17;;
10845;SDS011;5476;51.540;7.186;2022-08-01T01:41:40;26.40;;;21.35;;
10845;SDS011;5476;51.540;7.186;2022-08-01T01:44:10;26.90;;;22.33;;
10845;SDS011;5476;51.540;7.186;2022-08-01T01:46:38;25.88;;;21.05;;
10845;SDS011;5476;51.540;7.186;2022-08-01T01:49:07;25.30;;;20.30;;
10845;SDS011;5476;51.540;7.186;2022-08-01T01:51:35;24.05;;;19.30;;
10845;SDS011;5476;51.540;7.186;2022-08-01T01:54:04;21.83;;;18.45;;
10845;SDS011;5476;51.540;7.186;2022-08-01T01:56:33;25.90;;;20.05;;
10845;SDS011;5476;51.540;7.186;2022-08-01T01:59:15;24.13;;;19.85;;
10845;SDS011;5476;51.540;7.186;2022-08-01T02:01:44;24.80;;;19.95;;
10845;SDS011;5476;51.540;7.186;2022-08-01T02:04:13;25.02;;;20.17;;
10845;SDS011;5476;51.540;7.186;2022-08-01T02:06:41;23.73;;;19.90;;
10845;SDS011;5476;51.540;7.186;2022-08-01T02:09:09;26.67;;;21.02;;
10845;SDS011;5476;51.540;7.186;2022-08-01T02:11:37;27.02;;;21.20;;
10845;SDS011;5476;51.540;7.186;2022-08-01T02:14:06;29.52;;;21.42;;
10845;SDS011;5476;51.540;7.186;2022-08-01T02:16:36;30.13;;;21.55;;
10845;SDS011;5476;51.540;7.186;2022-08-01T02:19:07;30.00;;;21.60;;
10845;SDS011;5476;51.540;7.186;2022-08-01T02:21:38;29.98;;;21.55;;
10845;SDS011;5476;51.540;7.186;2022-08-01T02:24:09;32.15;;;23.75;;
10845;SDS011;5476;51.540;7.186;2022-08-01T02:26:41;29.67;;;23.00;;
10845;SDS011;5476;51.540;7.186;2022-08-01T02:29:13;29.85;;;23.63;;
10845;SDS011;5476;51.540;7.186;2022-08-01T02:31:46;32.20;;;23.73;;
10845;SDS011;5476;51.540;7.186;2022-08-01T02:34:15;31.27;;;23.80;;
10845;SDS011;5476;51.540;7.186;2022-08-01T02:36:45;31.92;;;24.83;;
10845;SDS011;5476;51.540;7.186;2022-08-01T02:39:14;30.73;;;23.42;;
10845;SDS011;5476;51.540;7.186;2022-08-01T02:41:45;39.72;;;26.58;;
10845;SDS011;5476;51.540;7.186;2022-08-01T02:44:16;34.22;;;25.25;;
10845;SDS011;5476;51.540;7.186;2022-08-01T02:46:51;33.88;;;23.92;;
10845;SDS011;5476;51.540;7.186;2022-08-01T02:49:22;33.10;;;24.45;;
10845;SDS011;5476;51.540;7.186;2022-08-01T02:51:52;30.23;;;25.45;;
10845;SDS011;5476;51.540;7.186;2022-08-01T02:54:20;29.42;;;24.13;;
10845;SDS011;5476;51.540;7.186;2022-08-01T02:56:49;30.70;;;23.17;;
10845;SDS011;5476;51.540;7.186;2022-08-01T02:59:18;25.27;;;19.67;;
10845;SDS011;5476;51.540;7.186;2022-08-01T03:01:51;26.67;;;20.75;;
10845;SDS011;5476;51.540;7.186;2022-08-01T03:04:21;23.00;;;19.40;;
10845;SDS011;5476;51.540;7.186;2022-08-01T03:06:49;24.70;;;18.75;;
10845;SDS011;5476;51.540;7.186;2022-08-01T03:09:18;25.02;;;19.73;;
10845;SDS011;5476;51.540;7.186;2022-08-01T03:11:47;24.88;;;20.55;;
10845;SDS011;5476;51.540;7.186;2022-08-01T03:14:15;29.67;;;21.77;;
10845;SDS011;5476;51.540;7.186;2022-08-01T03:16:44;27.95;;;20.67;;
10845;SDS011;5476;51.540;7.186;2022-08-01T03:19:14;29.02;;;21.95;;
10845;SDS011;5476;51.540;7.186;2022-08-01T03:21:44;29.20;;;22.52;;
10845;SDS011;5476;51.540;7.186;2022-08-01T03:24:13;28.02;;;22.20;;
10845;SDS011;5476;51.540;7.186;2022-08-01T03:26:42;32.88;;;23.52;;
10845;SDS011;5476;51.540;7.186;2022-08-01T03:29:12;33.22;;;24.85;;
10845;SDS011;5476;51.540;7.186;2022-08-01T03:31:43;33.10;;;24.58;;
10845;SDS011;5476;51.540;7.186;2022-08-01T03:34:12;32.13;;;23.05;;
10845;SDS011;5476;51.540;7.186;2022-08-01T03:36:42;31.48;;;22.20;;
10845;SDS011;5476;51.540;7.186;2022-08-01T03:39:12;31.35;;;23.33;;
10845;SDS011;5476;51.540;7.186;2022-08-01T03:41:43;31.15;;;23.10;;
10845;SDS011;5476;51.540;7.186;2022-08-01T03:44:19;33.90;;;23.15;;
10845;SDS011;5476;51.540;7.186;2022-08-01T03:46:53;33.10;;;22.98;;
10845;SDS011;5476;51.540;7.186;2022-08-01T03:49:25;31.17;;;22.48;;
10845;SDS011;5476;51.540;7.186;2022-08-01T03:51:57;32.10;;;23.15;;
10845;SDS011;5476;51.540;7.186;2022-08-01T03:54:28;29.40;;;21.98;;
10845;SDS011;5476;51.540;7.186;2022-08-01T03:56:58;31.35;;;23.00;;
10845;SDS011;5476;51.540;7.186;2022-08-01T03:59:27;30.70;;;22.35;;
10845;SDS011;5476;51.540;7.186;2022-08-01T04:01:55;35.67;;;22.25;;
10845;SDS011;5476;51.540;7.186;2022-08-01T04:04:22;30.83;;;22.20;;
10845;SDS011;5476;51.540;7.186;2022-08-01T04:06:50;31.58;;;22.55;;
10845;SDS011;5476;51.540;7.186;2022-08-01T04:09:20;30.73;;;22.88;;
10845;SDS011;5476;51.540;7.186;2022-08-01T04:11:48;33.22;;;22.58;;
10845;SDS011;5476;51.540;7.186;2022-08-01T04:14:15;33.22;;;22.30;;
10845;SDS011;5476;51.540;7.186;2022-08-01T04:16:42;29.50;;;20.95;;
10845;SDS011;5476;51.540;7.186;2022-08-01T04:19:09;32.80;;;22.35;;
10845;SDS011;5476;51.540;7.186;2022-08-01T04:21:36;29.50;;;21.48;;
10845;SDS011;5476;51.540;7.186;2022-08-01T04:24:05;32.42;;;21.02;;
10845;SDS011;5476;51.540;7.186;2022-08-01T04:26:38;30.38;;;21.67;;
10845;SDS011;5476;51.540;7.186;2022-08-01T04:29:07;29.20;;;20.27;;
10845;SDS011;5476;51.540;7.186;2022-08-01T04:31:35;33.30;;;22.05;;
10845;SDS011;5476;51.540;7.186;2022-08-01T04:34:05;30.33;;;21.23;;
10845;SDS011;5476;51.540;7.186;2022-08-01T04:36:33;28.45;;;20.95;;
10845;SDS011;5476;51.540;7.186;2022-08-01T04:39:02;27.52;;;21.15;;
10845;SDS011;5476;51.540;7.186;2022-08-01T04:41:31;31.25;;;21.13;;
10845;SDS011;5476;51.540;7.186;2022-08-01T04:44:02;25.15;;;20.00;;
10845;SDS011;5476;51.540;7.186;2022-08-01T04:46:29;27.02;;;19.73;;
10845;SDS011;5476;51.540;7.186;2022-08-01T04:48:57;31.30;;;19.95;;
10845;SDS011;5476;51.540;7.186;2022-08-01T04:51:25;26.35;;;19.30;;
10845;SDS011;5476;51.540;7.186;2022-08-01T04:53:52;25.55;;;19.10;;
10845;SDS011;5476;51.540;7.186;2022-08-01T04:56:19;27.85;;;20.30;;
10845;SDS011;5476;51.540;7.186;2022-08-01T04:58:47;26.52;;;19.42;;
10845;SDS011;5476;51.540;7.186;2022-08-01T05:01:35;30.35;;;19.45;;
10845;SDS011;5476;51.540;7.186;2022-08-01T05:04:02;26.52;;;17.05;;
10845;SDS011;5476;51.540;7.186;2022-08-01T05:06:29;23.30;;;16.98;;
10845;SDS011;5476;51.540;7.186;2022-08-01T05:08:56;27.60;;;19.55;;
10845;SDS011;5476;51.540;7.186;2022-08-01T05:11:23;21.58;;;15.55;;
10845;SDS011;5476;51.540;7.186;2022-08-01T05:13:50;20.05;;;15.35;;
10845;SDS011;5476;51.540;7.186;2022-08-01T05:16:17;18.75;;;15.00;;
10845;SDS011;5476;51.540;7.186;2022-08-01T05:18:45;19.15;;;15.35;;
10845;SDS011;5476;51.540;7.186;2022-08-01T05:21:12;21.98;;;15.43;;
10845;SDS011;5476;51.540;7.186;2022-08-01T05:23:39;20.10;;;15.25;;
10845;SDS011;5476;51.540;7.186;2022-08-01T05:26:07;19.67;;;14.73;;
10845;SDS011;5476;51.540;7.186;2022-08-01T05:28:34;19.00;;;15.07;;
10845;SDS011;5476;51.540;7.186;2022-08-01T05:31:01;19.80;;;14.68;;
10845;SDS011;5476;51.540;7.186;2022-08-01T05:33:28;21.33;;;15.27;;
10845;SDS011;5476;51.540;7.186;2022-08-01T05:35:57;20.08;;;15.57;;
10845;SDS011;5476;51.540;7.186;2022-08-01T05:38:24;19.50;;;15.32;;
10845;SDS011;5476;51.540;7.186;2022-08-01T05:40:51;22.65;;;15.98;;
10845;SDS011;5476;51.540;7.186;2022-08-01T05:43:18;20.77;;;16.17;;
10845;SDS011;5476;51.540;7.186;2022-08-01T05:45:45;20.25;;;15.32;;
10845;SDS011;5476;51.540;7.186;2022-08-01T05:48:12;21.83;;;16.48;;
10845;SDS011;5476;51.540;7.186;2022-08-01T05:50:39;20.08;;;15.98;;
10845;SDS011;5476;51.540;7.186;2022-08-01T05:53:08;19.70;;;15.45;;
10845;SDS011;5476;51.540;7.186;2022-08-01T05:55:35;21.02;;;15.57;;
10845;SDS011;5476;51.540;7.186;2022-08-01T05:58:02;24.65;;;16.23;;
10845;SDS011;5476;51.540;7.186;2022-08-01T06:00:29;22.30;;;16.38;;
10845;SDS011;5476;51.540;7.186;2022-08-01T06:02:56;24.02;;;16.73;;
10845;SDS011;5476;51.540;7.186;2022-08-01T06:05:23;22.40;;;16.08;;
10845;SDS011;5476;51.540;7.186;2022-08-01T06:07:50;16.75;;;13.85;;
10845;SDS011;5476;51.540;7.186;2022-08-01T06:10:19;20.65;;;14.85;;
10845;SDS011;5476;51.540;7.186;2022-08-01T06:12:46;20.70;;;14.20;;
10845;SDS011;5476;51.540;7.186;2022-08-01T06:15:13;21.08;;;14.70;;
10845;SDS011;5476;51.540;7.186;2022-08-01T06:17:44;17.65;;;14.05;;
10845;SDS011;5476;51.540;7.186;2022-08-01T06:20:11;21.45;;;14.20;;
10845;SDS011;5476;51.540;7.186;2022-08-01T06:22:38;18.98;;;14.23;;
10845;SDS011;5476;51.540;7.186;2022-08-01T06:25:05;20.60;;;14.75;;
10845;SDS011;5476;51.540;7.186;2022-08-01T06:27:35;18.75;;;14.50;;
10845;SDS011;5476;51.540;7.186;2022-08-01T06:30:02;18.00;;;13.93;;
10845;SDS011;5476;51.540;7.186;2022-08-01T06:32:30;17.75;;;13.75;;
10845;SDS011;5476;51.540;7.186;2022-08-01T06:34:56;17.98;;;13.68;;
10845;SDS011;5476;51.540;7.186;2022-08-01T06:37:23;19.25;;;14.45;;
10845;SDS011;5476;51.540;7.186;2022-08-01T06:39:54;17.05;;;13.55;;
10845;SDS011;5476;51.540;7.186;2022-08-01T06:42:21;16.85;;;13.02;;
10845;SDS011;5476;51.540;7.186;2022-08-01T06:44:50;15.93;;;12.75;;
10845;SDS011;5476;51.540;7.186;2022-08-01T06:47:17;16.95;;;13.43;;
10845;SDS011;5476;51.540;7.186;2022-08-01T06:49:44;20.88;;;14.55;;
10845;SDS011;5476;51.540;7.186;2022-08-01T06:52:11;21.38;;;13.48;;
10845;SDS011;5476;51.540;7.186;2022-08-01T06:54:38;18.08;;;14.50;;
10845;SDS011;5476;51.540;7.186;2022-08-01T06:57:05;21.13;;;14.82;;
10845;SDS011;5476;51.540;7.186;2022-08-01T06:59:32;19.67;;;15.23;;
10845;SDS011;5476;51.540;7.186;2022-08-01T07:02:01;19.30;;;14.15;;
10845;SDS011;5476;51.540;7.186;2022-08-01T07:04:28;19.85;;;13.57;;
10845;SDS011;5476;51.540;7.186;2022-08-01T07:06:55;20.83;;;14.43;;
10845;SDS011;5476;51.540;7.186;2022-08-01T07:09:22;18.90;;;14.65;;
10845;SDS011;5476;51.540;7.186;2022-08-01T07:11:49;21.60;;;14.85;;
10845;SDS011;5476;51.540;7.186;2022-08-01T07:14:17;17.88;;;13.52;;
10845;SDS011;5476;51.540;7.186;2022-08-01T07:16:44;15.25;;;10.18;;
10845;SDS011;5476;51.540;7.186;2022-08-01T07:19:13;9.82;;;8.57;;
10845;SDS011;5476;51.540;7.186;2022-08-01T07:21:40;13.90;;;9.38;;
10845;SDS011;5476;51.540;7.186;2022-08-01T07:24:07;11.75;;;8.55;;
10845;SDS011;5476;51.540;7.186;2022-08-01T07:26:35;11.52;;;8.93;;
10845;SDS011;5476;51.540;7.186;2022-08-01T07:29:03;9.38;;;7.88;;
10845;SDS011;5476;51.540;7.186;2022-08-01T07:31:30;11.93;;;7.78;;
10845;SDS011;5476;51.540;7.186;2022-08-01T07:33:57;7.45;;;6.75;;
10845;SDS011;5476;51.540;7.186;2022-08-01T07:36:25;9.02;;;7.10;;
10845;SDS011;5476;51.540;7.186;2022-08-01T07:38:52;9.65;;;7.60;;
10845;SDS011;5476;51.540;7.186;2022-08-01T07:41:19;9.27;;;7.53;;
10845;SDS011;5476;51.540;7.186;2022-08-01T07:43:46;9.55;;;7.32;;
10845;SDS011;5476;51.540;7.186;2022-08-01T07:46:14;8.27;;;7.00;;
10845;SDS011;5476;51.540;7.186;2022-08-01T07:48:41;8.38;;;7.10;;
10845;SDS011;5476;51.540;7.186;2022-08-01T07:51:09;8.18;;;6.53;;
10845;SDS011;5476;51.540;7.186;2022-08-01T07:53:38;6.93;;;5.70;;
10845;SDS011;5476;51.540;7.186;2022-08-01T07:56:05;7.28;;;5.47;;
10845;SDS011;5476;51.540;7.186;2022-08-01T07:58:32;5.90;;;4.80;;
10845;SDS011;5476;51.540;7.186;2022-08-01T08:01:01;8.45;;;5.60;;
10845;SDS011;5476;51.540;7.186;2022-08-01T08:03:28;6.88;;;5.93;;
10845;SDS011;5476;51.540;7.186;2022-08-01T08:05:55;8.73;;;4.95;;
10845;SDS011;5476;51.540;7.186;2022-08-01T08:08:24;5.43;;;4.70;;
10845;SDS011;5476;51.540;7.186;2022-08-01T08:10:52;5.70;;;5.15;;
10845;SDS011;5476;51.540;7.186;2022-08-01T08:13:19;5.20;;;4.80;;
10845;SDS011;5476;51.540;7.186;2022-08-01T08:15:46;5.57;;;4.75;;
10845;SDS011;5476;51.540;7.186;2022-08-01T08:18:13;6.72;;;5.18;;
10845;SDS011;5476;51.540;7.186;2022-08-01T08:20:40;6.97;;;5.28;;
10845;SDS011;5476;51.540;7.186;2022-08-01T08:23:07;5.00;;;4.60;;
10845;SDS011;5476;51.540;7.186;2022-08-01T08:25:48;4.82;;;4.32;;
10845;SDS011;5476;51.540;7.186;2022-08-01T08:28:16;5.82;;;3.45;;
10845;SDS011;5476;51.540;7.186;2022-08-01T08:30:43;3.83;;;3.40;;
10845;SDS011;5476;51.540;7.186;2022-08-01T08:33:10;3.00;;;2.70;;
10845;SDS011;5476;51.540;7.186;2022-08-01T08:35:38;4.57;;;3.38;;
10845;SDS011;5476;51.540;7.186;2022-08-01T08:38:05;4.18;;;3.78;;
10845;SDS011;5476;51.540;7.186;2022-08-01T08:40:32;3.72;;;3.33;;
10845;SDS011;5476;51.540;7.186;2022-08-01T08:43:03;3.20;;;2.90;;
10845;SDS011;5476;51.540;7.186;2022-08-01T08:45:33;5.53;;;3.08;;
10845;SDS011;5476;51.540;7.186;2022-08-01T08:48:00;4.82;;;4.05;;
10845;SDS011;5476;51.540;7.186;2022-08-01T08:50:27;5.70;;;5.18;;
10845;SDS011;5476;51.540;7.186;2022-08-01T08:52:55;5.20;;;4.70;;
10845;SDS011;5476;51.540;7.186;2022-08-01T08:55:27;6.57;;;5.40;;
10845;SDS011;5476;51.540;7.186;2022-08-01T08:57:54;4.13;;;3.47;;
10845;SDS011;5476;51.540;7.186;2022-08-01T09:00:22;3.50;;;3.20;;
10845;SDS011;5476;51.540;7.186;2022-08-01T09:02:51;2.15;;;1.95;;
10845;SDS011;5476;51.540;7.186;2022-08-01T09:05:21;1.60;;;1.50;;
10845;SDS011;5476;51.540;7.186;2022-08-01T09:07:50;2.17;;;2.00;;
10845;SDS011;5476;51.540;7.186;2022-08-01T09:10:17;1.85;;;1.75;;
10845;SDS011;5476;51.540;7.186;2022-08-01T09:15:40;2.15;;;1.50;;
10845;SDS011;5476;51.540;7.186;2022-08-01T09:18:10;2.78;;;1.90;;
10845;SDS011;5476;51.540;7.186;2022-08-01T09:21:06;1.73;;;1.50;;
10845;SDS011;5476;51.540;7.186;2022-08-01T09:23:35;2.35;;;1.70;;
10845;SDS011;5476;51.540;7.186;2022-08-01T09:26:05;3.17;;;1.50;;
10845;SDS011;5476;51.540;7.186;2022-08-01T09:28:32;1.60;;;1.45;;
10845;SDS011;5476;51.540;7.186;2022-08-01T09:30:59;1.58;;;1.48;;
10845;SDS011;5476;51.540;7.186;2022-08-01T09:33:47;1.50;;;1.40;;
10845;SDS011;5476;51.540;7.186;2022-08-01T09:36:15;5.10;;;2.22;;
10845;SDS011;5476;51.540;7.186;2022-08-01T09:38:43;2.75;;;1.40;;
10845;SDS011;5476;51.540;7.186;2022-08-01T09:41:10;1.90;;;1.80;;
10845;SDS011;5476;51.540;7.186;2022-08-01T09:43:37;1.70;;;1.60;;
10845;SDS011;5476;51.540;7.186;2022-08-01T09:46:04;2.05;;;1.45;;
10845;SDS011;5476;51.540;7.186;2022-08-01T09:48:35;1.77;;;1.67;;
10845;SDS011;5476;51.540;7.186;2022-08-01T09:51:06;1.55;;;1.45;;
10845;SDS011;5476;51.540;7.186;2022-08-01T09:53:40;1.50;;;1.40;;
10845;SDS011;5476;51.540;7.186;2022-08-01T09:56:08;1.50;;;1.40;;
10845;SDS011;5476;51.540;7.186;2022-08-01T09:58:48;1.60;;;1.50;;
10845;SDS011;5476;51.540;7.186;2022-08-01T10:01:20;2.28;;;1.80;;
10845;SDS011;5476;51.540;7.186;2022-08-01T10:03:47;1.95;;;1.85;;
10845;SDS011;5476;51.540;7.186;2022-08-01T10:06:32;2.40;;;1.92;;
10845;SDS011;5476;51.540;7.186;2022-08-01T10:08:59;2.13;;;1.65;;
10845;SDS011;5476;51.540;7.186;2022-08-01T10:11:26;1.77;;;1.52;;
10845;SDS011;5476;51.540;7.186;2022-08-01T10:13:56;2.05;;;1.77;;
10845;SDS011;5476;51.540;7.186;2022-08-01T10:16:25;3.30;;;1.50;;
10845;SDS011;5476;51.540;7.186;2022-08-01T10:18:54;2.15;;;1.63;;
10845;SDS011;5476;51.540;7.186;2022-08-01T10:21:23;1.83;;;1.70;;
10845;SDS011;5476;51.540;7.186;2022-08-01T10:23:53;1.30;;;1.20;;
10845;SDS011;5476;51.540;7.186;2022-08-01T10:26:24;2.33;;;1.00;;
10845;SDS011;5476;51.540;7.186;2022-08-01T10:28:52;2.40;;;1.10;;
10845;SDS011;5476;51.540;7.186;2022-08-01T10:31:21;1.23;;;1.13;;
10845;SDS011;5476;51.540;7.186;2022-08-01T10:33:49;1.48;;;1.23;;
10845;SDS011;5476;51.540;7.186;2022-08-01T10:36:17;1.23;;;1.00;;
10845;SDS011;5476;51.540;7.186;2022-08-01T10:38:46;1.20;;;1.10;;
10845;SDS011;5476;51.540;7.186;2022-08-01T10:41:15;1.67;;;1.10;;
10845;SDS011;5476;51.540;7.186;2022-08-01T10:43:44;1.40;;;1.10;;
10845;SDS011;5476;51.540;7.186;2022-08-01T10:46:11;3.80;;;1.27;;
10845;SDS011;5476;51.540;7.186;2022-08-01T10:48:40;1.50;;;1.40;;
10845;SDS011;5476;51.540;7.186;2022-08-01T10:51:13;2.00;;;1.35;;
10845;SDS011;5476;51.540;7.186;2022-08-01T10:53:46;1.20;;;1.10;;
10845;SDS011;5476;51.540;7.186;2022-08-01T10:56:15;0.60;;;0.60;;
10845;SDS011;5476;51.540;7.186;2022-08-01T10:58:43;0.98;;;0.98;;
10845;SDS011;5476;51.540;7.186;2022-08-01T11:01:15;1.20;;;1.10;;
10845;SDS011;5476;51.540;7.186;2022-08-01T11:03:44;1.98;;;1.20;;
10845;SDS011;5476;51.540;7.186;2022-08-01T11:06:25;0.90;;;0.90;;
10845;SDS011;5476;51.540;7.186;2022-08-01T11:09:02;0.80;;;0.80;;
10845;SDS011;5476;51.540;7.186;2022-08-01T11:11:32;1.10;;;1.10;;
10845;SDS011;5476;51.540;7.186;2022-08-01T11:14:23;1.38;;;0.90;;
10845;SDS011;5476;51.540;7.186;2022-08-01T11:16:50;1.25;;;1.15;;
10845;SDS011;5476;51.540;7.186;2022-08-01T11:19:17;0.80;;;0.80;;
10845;SDS011;5476;51.540;7.186;2022-08-01T11:21:59;0.88;;;0.75;;
10845;SDS011;5476;51.540;7.186;2022-08-01T11:27:34;0.60;;;0.60;;
10845;SDS011;5476;51.540;7.186;2022-08-01T11:32:55;0.82;;;0.68;;
10845;SDS011;5476;51.540;7.186;2022-08-01T11:35:23;1.98;;;1.77;;
10845;SDS011;5476;51.540;7.186;2022-08-01T11:37:52;5.20;;;4.80;;
10845;SDS011;5476;51.540;7.186;2022-08-01T11:40:21;3.85;;;3.55;;
10845;SDS011;5476;51.540;7.186;2022-08-01T11:45:48;1.25;;;1.15;;
10845;SDS011;5476;51.540;7.186;2022-08-01T11:48:19;3.63;;;1.70;;
10845;SDS011;5476;51.540;7.186;2022-08-01T11:50:47;0.95;;;0.90;;
10845;SDS011;5476;51.540;7.186;2022-08-01T11:53:16;0.80;;;0.80;;
10845;SDS011;5476;51.540;7.186;2022-08-01T11:55:45;0.90;;;0.90;;
10845;SDS011;5476;51.540;7.186;2022-08-01T11:58:15;1.20;;;1.10;;
10845;SDS011;5476;51.540;7.186;2022-08-01T12:00:49;1.48;;;0.90;;
10845;SDS011;5476;51.540;7.186;2022-08-01T12:03:20;1.60;;;1.00;;
10845;SDS011;5476;51.540;7.186;2022-08-01T12:05:50;1.42;;;1.20;;
10845;SDS011;5476;51.540;7.186;2022-08-01T12:08:23;1.45;;;1.30;;
10845;SDS011;5476;51.540;7.186;2022-08-01T12:10:51;2.65;;;1.02;;
10845;SDS011;5476;51.540;7.186;2022-08-01T12:13:20;1.15;;;1.05;;
10845;SDS011;5476;51.540;7.186;2022-08-01T12:15:48;0.85;;;0.80;;
10845;SDS011;5476;51.540;7.186;2022-08-01T12:18:16;0.90;;;0.70;;
10845;SDS011;5476;51.540;7.186;2022-08-01T12:20:44;0.85;;;0.85;;
10845;SDS011;5476;51.540;7.186;2022-08-01T12:23:12;1.20;;;1.10;;
10845;SDS011;5476;51.540;7.186;2022-08-01T12:25:40;1.45;;;1.20;;
10845;SDS011;5476;51.540;7.186;2022-08-01T12:28:09;1.60;;;1.50;;
10845;SDS011;5476;51.540;7.186;2022-08-01T12:30:39;1.30;;;1.20;;
10845;SDS011;5476;51.540;7.186;2022-08-01T12:33:07;1.30;;;1.20;;
10845;SDS011;5476;51.540;7.186;2022-08-01T12:35:37;1.35;;;1.20;;
10845;SDS011;5476;51.540;7.186;2022-08-01T12:38:09;1.48;;;1.00;;
10845;SDS011;5476;51.540;7.186;2022-08-01T12:40:41;1.58;;;1.10;;
10845;SDS011;5476;51.540;7.186;2022-08-01T12:43:09;1.52;;;0.88;;
10845;SDS011;5476;51.540;7.186;2022-08-01T12:45:44;1.17;;;0.90;;
10845;SDS011;5476;51.540;7.186;2022-08-01T12:48:13;1.20;;;1.00;;
10845;SDS011;5476;51.540;7.186;2022-08-01T12:50:42;1.20;;;1.10;;
10845;SDS011;5476;51.540;7.186;2022-08-01T12:53:10;1.30;;;1.20;;
10845;SDS011;5476;51.540;7.186;2022-08-01T12:55:43;0.90;;;0.90;;
10845;SDS011;5476;51.540;7.186;2022-08-01T12:58:12;1.00;;;1.00;;
10845;SDS011;5476;51.540;7.186;2022-08-01T13:00:41;1.65;;;1.20;;
10845;SDS011;5476;51.540;7.186;2022-08-01T13:03:11;1.05;;;1.00;;
10845;SDS011;5476;51.540;7.186;2022-08-01T13:05:43;2.17;;;1.40;;
10845;SDS011;5476;51.540;7.186;2022-08-01T13:08:11;1.67;;;1.10;;
10845;SDS011;5476;51.540;7.186;2022-08-01T13:10:38;1.25;;;1.10;;
10845;SDS011;5476;51.540;7.186;2022-08-01T13:13:06;0.98;;;0.90;;
10845;SDS011;5476;51.540;7.186;2022-08-01T13:15:35;1.10;;;1.00;;
10845;SDS011;5476;51.540;7.186;2022-08-01T13:21:06;1.48;;;1.20;;
10845;SDS011;5476;51.540;7.186;2022-08-01T13:23:34;1.30;;;1.20;;
10845;SDS011;5476;51.540;7.186;2022-08-01T13:26:01;1.20;;;1.20;;
10845;SDS011;5476;51.540;7.186;2022-08-01T13:28:29;1.20;;;1.10;;
10845;SDS011;5476;51.540;7.186;2022-08-01T13:30:57;1.10;;;1.10;;
10845;SDS011;5476;51.540;7.186;2022-08-01T13:33:27;1.40;;;1.40;;
10845;SDS011;5476;51.540;7.186;2022-08-01T13:36:05;1.55;;;1.40;;
10845;SDS011;5476;51.540;7.186;2022-08-01T13:38:33;1.05;;;1.05;;
10845;SDS011;5476;51.540;7.186;2022-08-01T13:41:17;1.30;;;1.27;;
10845;SDS011;5476;51.540;7.186;2022-08-01T13:43:44;1.25;;;1.20;;
10845;SDS011;5476;51.540;7.186;2022-08-01T13:46:11;1.50;;;1.40;;
10845;SDS011;5476;51.540;7.186;2022-08-01T13:48:39;1.15;;;1.13;;
10845;SDS011;5476;51.540;7.186;2022-08-01T13:51:07;1.27;;;1.27;;
10845;SDS011;5476;51.540;7.186;2022-08-01T13:53:34;1.10;;;1.02;;
10845;SDS011;5476;51.540;7.186;2022-08-01T13:56:01;1.92;;;1.20;;
10845;SDS011;5476;51.540;7.186;2022-08-01T13:58:28;1.50;;;1.30;;
10845;SDS011;5476;51.540;7.186;2022-08-01T14:00:55;1.20;;;1.10;;
10845;SDS011;5476;51.540;7.186;2022-08-01T14:03:22;1.17;;;1.17;;
10845;SDS011;5476;51.540;7.186;2022-08-01T14:05:51;1.30;;;1.20;;
10845;SDS011;5476;51.540;7.186;2022-08-01T14:08:18;1.38;;;1.20;;
10845;SDS011;5476;51.540;7.186;2022-08-01T14:10:45;3.00;;;1.30;;
10845;SDS011;5476;51.540;7.186;2022-08-01T14:13:12;2.00;;;1.40;;
10845;SDS011;5476;51.540;7.186;2022-08-01T14:15:39;1.83;;;1.58;;
10845;SDS011;5476;51.540;7.186;2022-08-01T14:18:06;1.70;;;1.60;;
10845;SDS011;5476;51.540;7.186;2022-08-01T14:20:34;2.45;;;1.90;;
10845;SDS011;5476;51.540;7.186;2022-08-01T14:23:04;3.55;;;2.10;;
10845;SDS011;5476;51.540;7.186;2022-08-01T14:25:31;3.50;;;1.60;;
10845;SDS011;5476;51.540;7.186;2022-08-01T14:27:59;1.42;;;1.33;;
10845;SDS011;5476;51.540;7.186;2022-08-01T14:30:26;1.60;;;1.50;;
10845;SDS011;5476;51.540;7.186;2022-08-01T14:32:52;1.95;;;1.75;;
10845;SDS011;5476;51.540;7.186;2022-08-01T14:35:19;1.80;;;1.55;;
10845;SDS011;5476;51.540;7.186;2022-08-01T14:37:47;2.63;;;1.65;;
10845;SDS011;5476;51.540;7.186;2022-08-01T14:40:15;3.00;;;1.90;;
10845;SDS011;5476;51.540;7.186;2022-08-01T14:42:42;3.97;;;1.80;;
10845;SDS011;5476;51.540;7.186;2022-08-01T14:45:10;3.17;;;2.00;;
10845;SDS011;5476;51.540;7.186;2022-08-01T14:47:38;4.22;;;2.25;;
10845;SDS011;5476;51.540;7.186;2022-08-01T14:50:07;2.30;;;1.70;;
10845;SDS011;5476;51.540;7.186;2022-08-01T14:52:35;1.60;;;1.50;;
10845;SDS011;5476;51.540;7.186;2022-08-01T14:55:04;1.88;;;1.58;;
10845;SDS011;5476;51.540;7.186;2022-08-01T14:57:34;2.35;;;1.80;;
10845;SDS011;5476;51.540;7.186;2022-08-01T15:00:02;5.35;;;1.70;;
10845;SDS011;5476;51.540;7.186;2022-08-01T15:02:31;1.55;;;1.45;;
10845;SDS011;5476;51.540;7.186;2022-08-01T15:04:57;1.90;;;1.80;;
10845;SDS011;5476;51.540;7.186;2022-08-01T15:07:25;2.35;;;1.70;;
10845;SDS011;5476;51.540;7.186;2022-08-01T15:09:52;6.38;;;2.25;;
10845;SDS011;5476;51.540;7.186;2022-08-01T15:12:19;2.10;;;1.90;;
10845;SDS011;5476;51.540;7.186;2022-08-01T15:14:48;2.40;;;2.03;;